Time;durP1;ratioP1;P1;durP2;ratioP2;P2;SDS_P1;SDS_P2;PMS_P1;PMS_P2;Temp;Humidity;BMP_temperature;BMP_pressure;BME280_temperature;BME280_humidity;BME280_pressure;Samples;Min_cycle;Max_cycle;Signal;HPM_P1;HPM_P2
2022/12/22 03:25:53;;;;;;;70.70;25.75;;;8.10;99.90;;;;;;5021101;28;20080;-75
2022/12/22 03:28:20;;;;;;;80.18;27.02;;;8.00;99.90;;;;;;4997324;28;20056;-75
2022/12/22 03:30:59;;;;;;;68.60;26.80;;;8.00;99.90;;;;;;5008252;28;20041;-75
2022/12/22 03:33:25;;;;;;;67.63;26.67;;;8.00;99.90;;;;;;5014130;28;20117;-74
2022/12/22 03:35:50;;;;;;;79.90;27.85;;;8.00;99.90;;;;;;4996963;28;20120;-74
2022/12/22 03:38:16;;;;;;;65.60;27.15;;;8.00;99.90;;;;;;5012309;28;20450;-75
2022/12/22 03:40:42;;;;;;;69.53;27.67;;;8.00;99.90;;;;;;5002955;28;20486;-74
2022/12/22 03:49:10;;;;;;;70.25;26.48;;;8.00;99.90;;;;;;4984094;28;20048;-75
2022/12/22 03:51:49;;;;;;;112.72;31.88;;;8.00;99.90;;;;;;5003753;28;20041;-76
2022/12/22 03:54:17;;;;;;;95.47;29.85;;;8.10;99.90;;;;;;5016429;28;20456;-76
2022/12/22 03:56:43;;;;;;;97.22;29.23;;;8.10;99.90;;;;;;4995757;28;20415;-75
2022/12/22 03:59:10;;;;;;;79.65;29.92;;;8.10;99.90;;;;;;4980458;28;20044;-75
2022/12/22 04:01:41;;;;;;;134.95;33.33;;;8.10;99.90;;;;;;5018296;28;20045;-76
2022/12/22 04:04:08;;;;;;;89.72;29.77;;;8.10;99.90;;;;;;5016779;28;20029;-75
2022/12/22 04:06:37;;;;;;;114.55;31.55;;;8.10;99.90;;;;;;5010821;28;20042;-75
2022/12/22 04:09:03;;;;;;;83.25;28.40;;;8.10;99.90;;;;;;4982928;28;20068;-76
2022/12/22 04:14:16;;;;;;;102.78;29.88;;;8.10;99.90;;;;;;5007332;28;20120;-75
2022/12/22 04:16:42;;;;;;;99.63;30.30;;;8.00;99.90;;;;;;4994469;28;20172;-74
2022/12/22 04:19:08;;;;;;;105.63;30.88;;;8.00;99.90;;;;;;5019510;28;20052;-75
2022/12/22 04:21:35;;;;;;;94.68;30.95;;;8.00;99.90;;;;;;4999081;28;20407;-75
2022/12/22 04:24:01;;;;;;;84.45;29.60;;;8.00;99.90;;;;;;4995333;28;20037;-75
2022/12/22 04:26:27;;;;;;;84.63;29.33;;;8.00;99.90;;;;;;4992059;28;20375;-75
2022/12/22 04:28:53;;;;;;;94.97;29.85;;;8.00;99.90;;;;;;4988912;28;20099;-75
2022/12/22 04:31:20;;;;;;;75.88;26.80;;;8.00;99.90;;;;;;4997760;28;20124;-75
2022/12/22 04:33:46;;;;;;;78.55;28.15;;;8.00;99.90;;;;;;5025388;28;20052;-74
2022/12/22 04:36:12;;;;;;;117.00;31.38;;;8.00;99.90;;;;;;5010279;28;20030;-73
2022/12/22 04:38:38;;;;;;;79.20;28.65;;;8.00;99.90;;;;;;4975898;28;20172;-75
2022/12/22 04:41:05;;;;;;;63.10;25.42;;;8.10;99.90;;;;;;4989415;28;20467;-74
2022/12/22 04:43:31;;;;;;;90.18;27.38;;;8.00;99.90;;;;;;4999230;28;20408;-75
2022/12/22 04:45:57;;;;;;;64.85;27.35;;;8.00;99.90;;;;;;5009010;28;20049;-75
2022/12/22 04:48:24;;;;;;;71.43;27.17;;;8.00;99.90;;;;;;4993692;28;20152;-74
2022/12/22 04:50:54;;;;;;;62.97;25.40;;;8.00;99.90;;;;;;4995449;28;20064;-75
2022/12/22 04:53:21;;;;;;;75.75;26.75;;;8.00;99.90;;;;;;5000952;28;20041;-75
2022/12/22 04:55:49;;;;;;;63.50;25.60;;;7.90;99.90;;;;;;5028054;28;20049;-75
2022/12/22 04:58:15;;;;;;;77.30;27.25;;;7.90;99.90;;;;;;5008398;28;20285;-76
2022/12/22 05:00:41;;;;;;;76.35;25.92;;;8.00;99.90;;;;;;4972516;28;20529;-76
2022/12/22 05:03:07;;;;;;;71.55;27.05;;;8.00;99.90;;;;;;5020564;28;20509;-74
2022/12/22 05:05:34;;;;;;;116.90;27.77;;;8.00;99.90;;;;;;4998131;28;20041;-77
2022/12/22 05:08:00;;;;;;;70.63;26.20;;;8.00;99.90;;;;;;4995007;28;20077;-75
2022/12/22 05:10:26;;;;;;;108.93;29.83;;;8.00;99.90;;;;;;4991937;28;20040;-74
2022/12/22 05:12:55;;;;;;;79.88;26.58;;;8.00;99.90;;;;;;5029799;28;20037;-75
2022/12/22 05:15:26;;;;;;;75.72;26.90;;;8.00;99.90;;;;;;4994419;28;20172;-75
2022/12/22 05:17:52;;;;;;;86.28;27.27;;;8.00;99.90;;;;;;5019945;28;20037;-75
2022/12/22 05:20:18;;;;;;;89.85;28.50;;;8.10;99.90;;;;;;4997921;28;20037;-75
2022/12/22 05:22:44;;;;;;;91.28;29.73;;;8.10;99.90;;;;;;5010586;28;20517;-75
2022/12/22 05:25:10;;;;;;;88.38;29.70;;;8.90;99.90;;;;;;5028281;28;20034;-75
2022/12/22 05:27:36;;;;;;;85.75;28.83;;;8.10;99.90;;;;;;4998925;28;20049;-74
2022/12/22 05:30:03;;;;;;;96.10;28.23;;;8.10;99.90;;;;;;5030123;28;20076;-74
2022/12/22 05:32:32;;;;;;;91.18;30.15;;;8.10;99.90;;;;;;5030985;28;20116;-75
2022/12/22 05:34:58;;;;;;;86.85;29.05;;;8.10;99.90;;;;;;5013954;28;20046;-74
2022/12/22 05:37:24;;;;;;;88.68;28.35;;;8.10;99.90;;;;;;5004410;28;20106;-74
2022/12/22 05:39:49;;;;;;;85.20;29.45;;;8.40;99.90;;;;;;5018972;28;20499;-74
2022/12/22 05:42:34;;;;;;;89.57;28.25;;;8.10;99.90;;;;;;4988714;28;20040;-74
2022/12/22 05:45:14;;;;;;;79.30;26.75;;;8.10;99.90;;;;;;5011018;28;20080;-76
2022/12/22 05:47:41;;;;;;;73.75;25.63;;;8.10;99.90;;;;;;5018263;28;20098;-74
2022/12/22 05:50:11;;;;;;;83.15;25.60;;;8.00;99.90;;;;;;4977590;28;20044;-76
2022/12/22 05:52:37;;;;;;;79.95;26.88;;;8.10;99.90;;;;;;4994666;28;20037;-74
2022/12/22 05:55:04;;;;;;;72.85;25.48;;;8.40;99.90;;;;;;5007348;28;20057;-76
2022/12/22 05:57:30;;;;;;;68.00;24.42;;;8.00;99.90;;;;;;5005697;28;20387;-75
2022/12/22 05:59:55;;;;;;;70.85;24.58;;;8.60;99.90;;;;;;5008337;28;20033;-75
2022/12/22 06:02:21;;;;;;;67.95;24.02;;;8.00;99.90;;;;;;4961637;28;20359;-74
2022/12/22 06:04:47;;;;;;;55.40;23.58;;;8.00;99.90;;;;;;4977488;28;20037;-75
2022/12/22 06:07:12;;;;;;;55.22;21.40;;;7.90;99.90;;;;;;4996551;28;20057;-75
2022/12/22 06:09:38;;;;;;;60.17;22.67;;;7.90;99.90;;;;;;5007145;28;20580;-76
2022/12/22 06:12:05;;;;;;;55.65;22.35;;;7.80;99.90;;;;;;4986267;28;20037;-76
2022/12/22 06:14:31;;;;;;;59.53;22.13;;;7.80;99.90;;;;;;5014128;28;20625;-74
2022/12/22 06:16:57;;;;;;;63.22;22.42;;;7.80;99.90;;;;;;5013726;28;20537;-75
2022/12/22 06:19:23;;;;;;;59.88;21.88;;;7.80;99.90;;;;;;5013837;28;20097;-75
2022/12/22 06:21:48;;;;;;;56.08;21.55;;;7.70;99.90;;;;;;5000090;28;20501;-75
2022/12/22 06:24:14;;;;;;;61.45;21.90;;;7.60;99.90;;;;;;5018559;28;20116;-74
2022/12/22 06:26:40;;;;;;;47.92;18.98;;;7.70;99.90;;;;;;5014888;28;20155;-74
2022/12/22 06:29:05;;;;;;;58.30;19.95;;;7.50;99.90;;;;;;4996315;28;20033;-76
2022/12/22 06:31:31;;;;;;;52.25;19.40;;;7.40;99.90;;;;;;4975976;28;20139;-75
2022/12/22 06:33:57;;;;;;;56.08;20.30;;;7.40;99.90;;;;;;5017558;28;20045;-74
2022/12/22 06:36:22;;;;;;;43.83;18.33;;;7.20;99.90;;;;;;5010472;28;20037;-75
2022/12/22 06:38:48;;;;;;;46.00;18.10;;;7.20;99.90;;;;;;5022197;28;20503;-74
2022/12/22 06:43:07;;;;;;;45.15;16.42;;;7.30;99.90;;;;;;5025728;28;20048;-75
2022/12/22 06:44:00;;;;;;;52.78;18.80;;;7.10;99.90;;;;;;5008322;28;20041;-74
2022/12/22 06:46:25;;;;;;;45.92;17.50;;;7.00;99.90;;;;;;4993406;28;20086;-75
2022/12/22 06:48:51;;;;;;;46.80;17.65;;;6.90;99.90;;;;;;5008776;28;20052;-76
2022/12/22 06:51:17;;;;;;;44.65;18.77;;;6.80;99.90;;;;;;5009615;28;20048;-75
2022/12/22 06:53:43;;;;;;;44.42;18.77;;;6.90;99.90;;;;;;4991895;28;20126;-76
2022/12/22 06:56:08;;;;;;;48.63;19.15;;;6.70;99.90;;;;;;5007945;28;20041;-73
2022/12/22 06:58:34;;;;;;;53.58;19.73;;;6.60;99.90;;;;;;4993056;28;20095;-74
2022/12/22 07:01:00;;;;;;;58.45;19.83;;;6.60;99.90;;;;;;4971116;28;20080;-75
2022/12/22 07:03:25;;;;;;;71.57;21.98;;;6.50;99.90;;;;;;5008054;28;20041;-76
2022/12/22 07:05:51;;;;;;;60.72;18.95;;;6.50;99.90;;;;;;5008808;28;20427;-74
2022/12/22 07:08:17;;;;;;;48.20;19.65;;;6.40;99.90;;;;;;5003407;28;20033;-74
2022/12/22 07:10:59;;;;;;;62.70;20.70;;;6.30;99.90;;;;;;4970404;28;20052;-74
2022/12/22 07:13:33;;;;;;;87.40;21.15;;;6.30;99.90;;;;;;4974299;28;20475;-75
2022/12/22 07:16:04;;;;;;;45.95;18.20;;;6.20;99.90;;;;;;4988245;28;20136;-75
2022/12/22 07:18:36;;;;;;;73.25;18.63;;;6.20;99.90;;;;;;5003673;28;20046;-76
2022/12/22 07:21:03;;;;;;;43.33;15.95;;;6.20;99.90;;;;;;5003014;28;20519;-75
2022/12/22 07:23:30;;;;;;;62.15;17.88;;;6.20;99.90;;;;;;4988025;28;20124;-76
2022/12/22 07:25:56;;;;;;;68.90;21.55;;;5.80;99.90;;;;;;4988202;28;20052;-74
2022/12/22 07:28:22;;;;;;;70.03;21.00;;;6.20;99.90;;;;;;5023400;28;20038;-76
2022/12/22 07:30:49;;;;;;;60.28;20.77;;;6.30;99.90;;;;;;5003104;28;20266;-75
2022/12/22 07:33:15;;;;;;;75.72;22.17;;;6.40;99.90;;;;;;5023861;28;20045;-76
2022/12/22 07:35:41;;;;;;;70.78;22.38;;;6.40;99.90;;;;;;5004736;28;20041;-75
2022/12/22 07:38:06;;;;;;;74.05;24.10;;;6.50;99.90;;;;;;4971927;28;20112;-75
2022/12/22 07:40:32;;;;;;;59.65;21.48;;;6.50;99.90;;;;;;5004748;28;20050;-76
2022/12/22 07:42:59;;;;;;;57.58;20.63;;;6.50;99.90;;;;;;4987580;28;20068;-75
2022/12/22 07:45:26;;;;;;;53.75;19.65;;;6.50;99.90;;;;;;5001506;28;20455;-76
2022/12/22 07:47:57;;;;;;;54.88;19.08;;;6.50;99.90;;;;;;5004004;28;20127;-74
2022/12/22 07:50:28;;;;;;;68.15;21.38;;;6.40;99.90;;;;;;5000181;28;20045;-75
2022/12/22 07:52:56;;;;;;;73.13;21.58;;;6.40;99.90;;;;;;4955675;28;20033;-74
2022/12/22 07:55:23;;;;;;;60.53;20.10;;;6.50;99.90;;;;;;4986500;28;20586;-76
2022/12/22 07:57:49;;;;;;;60.40;20.38;;;6.50;99.90;;;;;;5002024;28;20115;-75
2022/12/22 08:00:15;;;;;;;60.88;19.35;;;6.30;99.90;;;;;;4983059;28;20038;-75
2022/12/22 08:02:41;;;;;;;56.60;19.48;;;6.20;99.90;;;;;;5001513;28;20038;-74
2022/12/22 08:05:09;;;;;;;53.95;18.55;;;6.20;99.90;;;;;;5001986;28;20148;-75
2022/12/22 08:07:35;;;;;;;59.53;19.92;;;6.20;99.90;;;;;;4984687;28;20125;-74
2022/12/22 08:10:10;;;;;;;59.35;18.17;;;6.10;99.90;;;;;;5088949;27;20440;-76
2022/12/22 08:12:35;;;;;;;53.83;17.77;;;6.10;99.90;;;;;;5043786;28;20563;-75
2022/12/22 08:15:01;;;;;;;60.85;18.75;;;6.20;99.90;;;;;;5029801;28;20049;-75
2022/12/22 08:17:27;;;;;;;51.08;17.38;;;6.10;99.90;;;;;;5034657;28;20098;-74
2022/12/22 08:19:54;;;;;;;44.85;16.88;;;6.30;99.90;;;;;;5062351;28;20043;-74
2022/12/22 08:22:23;;;;;;;57.45;17.92;;;6.10;99.90;;;;;;5070657;28;20142;-74
2022/12/22 08:24:52;;;;;;;49.10;16.63;;;6.20;99.90;;;;;;5066752;28;20052;-75
2022/12/22 08:27:27;;;;;;;51.53;17.30;;;6.20;99.90;;;;;;5069661;28;20533;-75
2022/12/22 08:29:57;;;;;;;62.33;17.33;;;6.30;99.90;;;;;;5068926;28;20079;-76
2022/12/22 08:32:23;;;;;;;54.03;16.98;;;6.30;99.90;;;;;;5066083;28;20036;-75
2022/12/22 08:34:51;;;;;;;49.53;17.08;;;6.30;99.90;;;;;;5073606;28;20044;-75
2022/12/22 08:37:21;;;;;;;45.92;16.00;;;6.30;99.90;;;;;;5055281;28;20045;-75
2022/12/22 08:39:53;;;;;;;53.30;17.08;;;6.30;99.90;;;;;;5049596;28;20102;-75
2022/12/22 08:42:24;;;;;;;56.60;16.92;;;7.60;99.90;;;;;;5065534;28;20123;-75
2022/12/22 08:44:53;;;;;;;45.08;16.27;;;;;;;;;;5064998;28;20157;-78
2022/12/22 08:47:20;;;;;;;51.95;16.48;;;6.30;99.90;;;;;;5056346;28;20037;-76
2022/12/22 08:49:46;;;;;;;55.85;17.38;;;6.50;99.90;;;;;;5055089;28;20083;-75
2022/12/22 08:52:12;;;;;;;49.40;17.73;;;6.30;99.90;;;;;;5051303;28;20486;-75
2022/12/22 08:54:38;;;;;;;46.97;16.95;;;6.30;99.90;;;;;;5050193;28;20405;-75
2022/12/22 08:57:04;;;;;;;44.40;16.40;;;6.70;99.90;;;;;;5046932;28;20036;-75
2022/12/22 08:59:29;;;;;;;48.65;15.75;;;6.40;99.90;;;;;;5068756;28;20101;-76
2022/12/22 09:01:55;;;;;;;50.65;16.70;;;6.30;99.90;;;;;;5075799;28;20068;-75
2022/12/22 09:04:24;;;;;;;48.45;15.70;;;6.60;99.90;;;;;;5055325;28;20094;-75
2022/12/22 09:06:52;;;;;;;52.92;14.05;;;6.10;99.90;;;;;;5066677;28;20040;-75
2022/12/22 09:09:19;;;;;;;59.00;14.38;;;6.30;99.90;;;;;;5056370;28;20126;-76
2022/12/22 09:11:45;;;;;;;43.67;13.50;;;6.30;99.90;;;;;;5055869;28;20059;-75
2022/12/22 09:14:11;;;;;;;35.28;12.45;;;6.30;99.90;;;;;;5050967;28;20045;-75
2022/12/22 09:16:37;;;;;;;49.40;13.00;;;6.40;99.90;;;;;;5079389;28;20040;-75
2022/12/22 09:19:05;;;;;;;38.55;12.68;;;6.40;99.90;;;;;;5062866;28;20127;-76
2022/12/22 09:21:31;;;;;;;32.05;10.55;;;6.40;99.90;;;;;;5069599;28;20036;-75
2022/12/22 09:23:57;;;;;;;35.28;11.02;;;6.70;99.90;;;;;;5027584;28;20127;-75
2022/12/22 09:26:25;;;;;;;49.83;12.10;;;6.40;99.90;;;;;;5067775;28;20044;-76
2022/12/22 09:28:54;;;;;;;33.40;11.88;;;6.40;99.90;;;;;;5039203;28;20091;-75
2022/12/22 09:31:22;;;;;;;35.08;11.82;;;6.40;99.90;;;;;;5056214;28;20041;-74
2022/12/22 09:33:48;;;;;;;40.10;11.98;;;6.40;99.90;;;;;;5056913;28;20032;-75
2022/12/22 09:36:16;;;;;;;47.15;12.57;;;6.70;99.90;;;;;;5054773;28;20124;-74
2022/12/22 09:38:42;;;;;;;38.15;11.63;;;6.50;99.90;;;;;;5053163;28;20499;-74
2022/12/22 09:41:13;;;;;;;37.25;12.20;;;6.50;99.90;;;;;;5052994;28;20043;-75
2022/12/22 09:43:39;;;;;;;35.55;12.48;;;7.80;99.90;;;;;;5066168;28;20072;-77
2022/12/22 09:46:16;;;;;;;36.22;11.15;;;6.60;99.90;;;;;;5059881;28;20040;-75
2022/12/22 09:48:41;;;;;;;31.83;11.13;;;6.60;99.90;;;;;;5071277;28;20040;-75
2022/12/22 09:51:11;;;;;;;27.02;10.60;;;6.90;99.90;;;;;;5040981;28;20131;-75
2022/12/22 09:53:43;;;;;;;28.65;9.82;;;6.60;99.90;;;;;;5054630;28;20068;-77
2022/12/22 09:56:13;;;;;;;28.30;11.07;;;6.60;99.90;;;;;;5052268;28;20095;-75
2022/12/22 09:58:40;;;;;;;30.67;10.68;;;6.60;99.90;;;;;;5058327;28;20044;-74
2022/12/22 10:01:09;;;;;;;29.77;10.63;;;6.10;99.90;;;;;;5053227;28;20048;-74
2022/12/22 10:03:38;;;;;;;26.00;10.68;;;6.80;99.90;;;;;;5053501;28;20575;-75
2022/12/22 10:06:12;;;;;;;23.77;9.43;;;6.80;99.90;;;;;;5055676;28;20072;-75
2022/12/22 10:08:40;;;;;;;27.38;9.73;;;6.80;99.90;;;;;;5042942;28;20133;-77
2022/12/22 10:11:19;;;;;;;24.25;9.75;;;6.80;99.90;;;;;;5037516;28;20063;-75
2022/12/22 10:13:45;;;;;;;24.33;10.05;;;6.90;99.90;;;;;;5054678;28;20466;-76
2022/12/22 10:16:17;;;;;;;22.95;9.77;;;6.90;99.90;;;;;;5057169;28;20375;-75
2022/12/22 10:19:08;;;;;;;23.52;9.55;;;7.00;99.90;;;;;;5036389;28;20041;-75
2022/12/22 10:21:37;;;;;;;22.00;9.32;;;7.10;99.90;;;;;;5057379;28;20049;-74
2022/12/22 10:24:28;;;;;;;20.65;8.88;;;10.00;99.90;;;;;;5041807;28;20039;-76
2022/12/22 10:26:59;;;;;;;20.90;8.80;;;7.30;99.90;;;;;;5052872;28;20485;-75
2022/12/22 10:29:25;;;;;;;22.13;8.75;;;7.30;99.90;;;;;;5059165;28;20040;-75
2022/12/22 10:32:02;;;;;;;21.77;8.68;;;7.40;99.90;;;;;;5037463;28;20406;-76
2022/12/22 10:34:31;;;;;;;17.75;7.90;;;7.40;99.90;;;;;;5051971;28;20044;-74
2022/12/22 10:37:01;;;;;;;21.52;8.98;;;7.40;99.90;;;;;;5053270;28;20041;-75
2022/12/22 10:39:37;;;;;;;20.05;8.63;;;7.50;99.90;;;;;;5042830;28;20072;-75
2022/12/22 10:42:13;;;;;;;21.20;8.20;;;7.60;99.90;;;;;;5041654;28;20084;-75
2022/12/22 10:44:44;;;;;;;21.83;9.05;;;7.50;99.90;;;;;;5059987;28;20032;-75
2022/12/22 10:47:20;;;;;;;21.02;8.32;;;7.60;99.90;;;;;;5065992;28;20521;-76
2022/12/22 10:49:48;;;;;;;19.13;7.90;;;7.60;99.90;;;;;;5051019;28;20124;-75
2022/12/22 10:52:21;;;;;;;17.75;7.90;;;7.60;99.90;;;;;;5054984;28;20067;-75
2022/12/22 10:54:49;;;;;;;18.40;7.90;;;7.60;99.90;;;;;;5051716;28;20033;-76
2022/12/22 10:57:17;;;;;;;20.13;8.13;;;7.60;99.90;;;;;;5053359;28;20039;-75
2022/12/22 10:59:48;;;;;;;18.95;8.43;;;7.60;99.90;;;;;;5067841;28;20524;-75
2022/12/22 11:02:37;;;;;;;18.52;7.82;;;7.60;99.90;;;;;;5050483;28;20041;-75
2022/12/22 11:05:09;;;;;;;17.80;8.48;;;7.60;99.90;;;;;;5043324;28;20237;-75
2022/12/22 11:07:41;;;;;;;20.92;8.90;;;7.60;99.90;;;;;;5052251;28;20119;-75
2022/12/22 11:10:20;;;;;;;18.52;7.47;;;7.60;99.90;;;;;;5043671;28;20529;-75
2022/12/22 11:13:03;;;;;;;19.65;8.18;;;8.90;99.90;;;;;;5057225;28;20033;-74
2022/12/22 11:15:44;;;;;;;17.65;7.38;;;7.50;99.90;;;;;;5052321;28;20044;-76
2022/12/22 11:18:24;;;;;;;15.98;7.07;;;7.50;99.90;;;;;;5059261;28;20052;-75
2022/12/22 11:21:10;;;;;;;20.70;7.65;;;7.50;99.90;;;;;;5043997;28;20067;-75
2022/12/22 11:23:55;;;;;;;18.92;7.40;;;7.50;99.90;;;;;;5054920;28;20413;-75
2022/12/22 11:26:46;;;;;;;15.65;6.88;;;7.50;99.90;;;;;;5058455;28;20032;-74
2022/12/22 11:29:27;;;;;;;20.13;6.80;;;7.60;99.90;;;;;;5053724;28;20050;-76
2022/12/22 11:31:59;;;;;;;17.98;6.47;;;7.60;99.90;;;;;;5053384;28;20040;-74
2022/12/22 11:34:46;;;;;;;18.85;7.35;;;7.70;99.90;;;;;;5050854;28;20116;-75
2022/12/22 11:37:20;;;;;;;17.67;7.35;;;7.70;99.90;;;;;;5058938;28;20041;-75
2022/12/22 11:40:12;;;;;;;16.02;6.43;;;7.70;99.90;;;;;;5053662;28;20048;-75
2022/12/22 11:43:02;;;;;;;12.67;5.77;;;7.80;99.90;;;;;;5031985;28;20044;-76
2022/12/22 11:45:49;;;;;;;16.80;6.00;;;7.80;99.90;;;;;;5053376;28;20052;-75
2022/12/22 11:48:47;;;;;;;14.77;5.93;;;7.70;99.90;;;;;;5057487;28;20055;-75
2022/12/22 11:51:40;;;;;;;14.90;6.03;;;7.70;99.90;;;;;;5054305;28;20048;-74
2022/12/22 11:54:15;;;;;;;;;;;7.80;99.90;;;;;;5053455;28;20056;-74
2022/12/22 11:56:49;;;;;;;18.83;5.90;;;7.80;99.90;;;;;;5059794;28;19921;-75
2022/12/22 11:59:24;;;;;;;15.65;6.13;;;7.80;99.90;;;;;;5044684;28;20041;-75
2022/12/22 12:02:24;;;;;;;14.73;6.00;;;7.80;99.90;;;;;;5048911;28;20083;-76
2022/12/22 12:05:11;;;;;;;18.88;5.93;;;7.90;99.90;;;;;;5054445;28;20490;-77
2022/12/22 12:07:44;;;;;;;13.73;4.90;;;7.90;99.90;;;;;;5056631;28;20156;-75
2022/12/22 12:10:26;;;;;;;14.90;5.28;;;8.00;99.90;;;;;;5058079;28;20140;-76
2022/12/22 12:13:36;;;;;;;17.48;5.30;;;8.00;99.90;;;;;;5050779;28;20047;-75
2022/12/22 12:16:20;;;;;;;15.23;4.88;;;8.10;99.90;;;;;;5049939;28;20538;-75
2022/12/22 12:19:06;;;;;;;14.45;5.55;;;8.10;99.90;;;;;;5056828;28;20036;-75
2022/12/22 12:21:44;;;;;;;16.48;5.72;;;8.10;99.90;;;;;;5037916;28;20036;-75
2022/12/22 12:24:35;;;;;;;16.80;5.68;;;8.20;99.90;;;;;;5053687;28;20279;-74
2022/12/22 12:27:04;;;;;;;15.70;5.55;;;8.20;99.90;;;;;;5035465;28;20557;-75
2022/12/22 12:29:41;;;;;;;13.60;5.28;;;8.20;99.90;;;;;;5055309;28;20091;-73
2022/12/22 12:32:14;;;;;;;17.60;5.28;;;8.30;99.90;;;;;;5067971;28;20033;-75
2022/12/22 12:34:49;;;;;;;14.85;4.82;;;8.20;99.90;;;;;;5068664;28;20489;-75
2022/12/22 12:37:35;;;;;;;13.40;4.90;;;8.20;99.90;;;;;;5054202;28;20594;-75
2022/12/22 12:40:20;;;;;;;15.85;5.35;;;8.20;99.90;;;;;;5047419;28;20078;-74
2022/12/22 12:42:47;;;;;;;18.88;4.90;;;8.20;99.90;;;;;;5051167;28;20052;-74
2022/12/22 12:45:41;;;;;;;15.55;4.90;;;8.20;99.90;;;;;;5007308;28;20060;-75
2022/12/22 12:48:20;;;;;;;18.30;4.90;;;8.20;99.90;;;;;;5059863;28;20536;-73
2022/12/22 12:50:49;;;;;;;15.48;5.00;;;8.20;99.90;;;;;;5045858;28;20071;-75
2022/12/22 12:53:17;;;;;;;13.30;4.65;;;8.20;99.90;;;;;;5045958;28;20518;-75
2022/12/22 12:55:48;;;;;;;14.18;4.88;;;8.20;99.90;;;;;;5040741;28;20029;-74
2022/12/22 12:58:39;;;;;;;17.67;4.70;;;8.20;99.90;;;;;;5072875;28;20102;-75
2022/12/22 13:01:35;;;;;;;11.65;4.75;;;8.10;99.90;;;;;;5069547;28;20041;-74
2022/12/22 13:04:00;;;;;;;14.77;4.85;;;8.10;99.90;;;;;;5044429;28;20086;-75
2022/12/22 13:06:45;;;;;;;15.45;5.13;;;9.30;99.90;;;;;;5037930;28;20048;-74
2022/12/22 13:09:23;;;;;;;13.13;4.65;;;8.10;99.90;;;;;;5056188;28;20062;-74
2022/12/22 13:11:49;;;;;;;15.85;4.80;;;8.10;99.90;;;;;;5065460;28;20094;-75
2022/12/22 13:14:54;;;;;;;17.42;4.68;;;8.10;99.90;;;;;;5031536;28;20041;-75
2022/12/22 13:17:38;;;;;;;17.13;4.53;;;8.10;99.90;;;;;;5054260;28;20556;-73
2022/12/22 13:20:10;;;;;;;11.65;3.70;;;8.20;99.90;;;;;;5071021;28;20041;-76
2022/12/22 13:22:36;;;;;;;14.25;4.22;;;8.30;99.90;;;;;;5049433;28;20043;-74
2022/12/22 13:25:05;;;;;;;13.15;4.43;;;8.30;99.90;;;;;;5057660;28;20041;-76
2022/12/22 13:27:31;;;;;;;15.52;4.22;;;8.30;99.90;;;;;;5045621;28;20251;-74
2022/12/22 13:29:56;;;;;;;12.23;4.50;;;8.30;99.90;;;;;;5057406;28;21503;-74
2022/12/22 13:32:32;;;;;;;11.52;3.67;;;7.90;99.90;;;;;;5072074;28;20286;-75
2022/12/22 13:35:13;;;;;;;13.30;3.67;;;8.30;99.90;;;;;;5052263;28;20047;-74
2022/12/22 13:37:49;;;;;;;13.02;3.53;;;8.30;99.90;;;;;;5064901;28;20055;-77
2022/12/22 13:40:21;;;;;;;14.48;3.55;;;8.30;99.90;;;;;;5056100;28;20046;-75
2022/12/22 13:42:58;;;;;;;14.35;3.70;;;8.30;99.90;;;;;;5065261;28;20503;-74
2022/12/22 13:45:35;;;;;;;15.75;3.85;;;8.30;99.90;;;;;;5047069;28;20043;-74
2022/12/22 13:48:14;;;;;;;13.82;3.25;;;8.30;99.90;;;;;;5046273;28;20060;-75
2022/12/22 13:50:56;;;;;;;16.50;3.88;;;8.30;99.90;;;;;;5055027;28;20179;-75
2022/12/22 13:53:30;;;;;;;13.23;3.97;;;8.20;99.90;;;;;;5046100;28;20096;-75
2022/12/22 13:55:57;;;;;;;12.77;3.42;;;8.20;99.90;;;;;;5073574;28;20050;-75
2022/12/22 13:58:29;;;;;;;13.65;3.22;;;8.20;99.90;;;;;;5062150;28;20067;-76
2022/12/22 14:01:10;;;;;;;14.25;3.78;;;7.60;99.90;;;;;;5060585;28;21881;-75
2022/12/22 14:04:11;;;;;;;12.40;3.80;;;8.20;99.90;;;;;;5056162;28;20068;-75
2022/12/22 14:06:39;;;;;;;15.43;4.03;;;8.10;99.90;;;;;;5022154;28;20211;-75
2022/12/22 14:09:19;;;;;;;14.98;4.25;;;8.20;99.90;;;;;;5051085;28;20052;-74
2022/12/22 14:11:59;;;;;;;15.18;3.92;;;8.20;99.90;;;;;;5058346;28;21015;-75
2022/12/22 14:14:28;;;;;;;13.52;3.70;;;8.20;99.90;;;;;;5055654;28;20082;-74
2022/12/22 14:16:57;;;;;;;16.75;4.10;;;8.20;99.90;;;;;;5061431;28;20036;-74
2022/12/22 14:19:24;;;;;;;13.82;4.72;;;8.20;99.90;;;;;;5073694;28;20404;-74
2022/12/22 14:22:28;;;;;;;14.80;4.47;;;8.10;99.90;;;;;;5040123;28;20044;-76
2022/12/22 14:25:00;;;;;;;18.20;4.53;;;8.20;99.90;;;;;;5049057;28;20052;-75
2022/12/22 14:27:40;;;;;;;18.52;4.07;;;8.20;99.90;;;;;;5058295;28;20037;-75
2022/12/22 14:30:29;;;;;;;13.23;4.00;;;8.20;99.90;;;;;;5052539;28;20060;-75
2022/12/22 14:32:57;;;;;;;15.77;4.22;;;8.20;99.90;;;;;;5043802;28;20039;-75
2022/12/22 14:35:27;;;;;;;15.25;3.85;;;8.00;99.90;;;;;;5051291;28;20159;-73
2022/12/22 14:38:15;;;;;;;13.38;3.80;;;8.20;99.90;;;;;;5044548;28;20044;-75
2022/12/22 14:40:42;;;;;;;12.77;3.83;;;8.30;99.90;;;;;;5065621;28;20530;-75
2022/12/22 14:43:17;;;;;;;13.63;3.90;;;8.30;99.90;;;;;;5054769;28;20044;-75
2022/12/22 14:45:48;;;;;;;11.70;3.70;;;8.30;99.90;;;;;;5042200;28;20058;-75
2022/12/22 14:48:31;;;;;;;13.05;3.65;;;8.20;99.90;;;;;;5045446;28;20040;-75
2022/12/22 14:50:57;;;;;;;12.13;3.65;;;8.20;99.90;;;;;;5065350;28;20045;-75
2022/12/22 14:53:38;;;;;;;12.65;3.40;;;8.20;99.90;;;;;;5057987;28;20045;-75
2022/12/22 14:56:10;;;;;;;12.65;2.80;;;8.10;99.90;;;;;;5050013;28;20064;-76
2022/12/22 14:58:40;;;;;;;13.02;2.80;;;8.10;99.90;;;;;;5057777;28;20049;-75
2022/12/22 15:01:17;;;;;;;13.45;2.97;;;8.00;99.90;;;;;;5067099;28;20044;-75
2022/12/22 15:03:44;;;;;;;12.73;2.58;;;8.00;99.90;;;;;;5045730;28;20155;-75
2022/12/22 15:06:28;;;;;;;16.40;3.30;;;8.00;99.90;;;;;;5048376;28;20045;-75
2022/12/22 15:09:10;;;;;;;11.45;2.90;;;7.90;99.90;;;;;;5052975;28;20063;-75
2022/12/22 15:11:40;;;;;;;14.55;2.90;;;7.90;99.90;;;;;;5056599;28;20053;-75
2022/12/22 15:14:16;;;;;;;14.27;2.97;;;7.80;99.90;;;;;;5053507;28;20299;-76
2022/12/22 15:16:43;;;;;;;11.93;2.80;;;7.80;99.90;;;;;;5035362;28;20120;-74
2022/12/22 15:19:13;;;;;;;10.15;3.03;;;8.60;99.90;;;;;;5056233;28;20076;-75
2022/12/22 15:21:39;;;;;;;13.35;3.13;;;7.80;99.90;;;;;;5068991;28;20044;-75
2022/12/22 15:24:11;;;;;;;14.18;2.92;;;7.80;99.90;;;;;;5062923;28;20044;-75
2022/12/22 15:26:37;;;;;;;10.00;2.95;;;7.80;99.90;;;;;;5057118;28;20418;-76
2022/12/22 15:29:03;;;;;;;12.60;3.50;;;7.80;99.90;;;;;;5054342;28;20057;-75
2022/12/22 15:31:29;;;;;;;13.52;4.05;;;7.80;99.90;;;;;;5020288;28;20075;-74
2022/12/22 15:34:02;;;;;;;11.80;3.60;;;7.80;99.90;;;;;;5058070;28;20513;-76
2022/12/22 15:36:28;;;;;;;11.45;3.83;;;7.80;99.90;;;;;;5039749;28;20784;-75
2022/12/22 15:38:54;;;;;;;13.85;4.07;;;7.80;99.90;;;;;;5056567;28;20037;-75
2022/12/22 15:41:20;;;;;;;12.90;3.67;;;7.80;99.90;;;;;;5054291;28;20044;-75
2022/12/22 15:43:45;;;;;;;11.93;3.63;;;7.80;99.90;;;;;;5070549;28;20048;-75
2022/12/22 15:46:17;;;;;;;14.48;3.90;;;7.80;99.90;;;;;;5034373;28;20033;-76
2022/12/22 15:48:45;;;;;;;12.50;4.07;;;7.80;99.90;;;;;;5036196;28;20032;-75
2022/12/22 15:51:19;;;;;;;14.05;4.47;;;7.80;99.90;;;;;;5025025;28;20036;-74
2022/12/22 15:53:45;;;;;;;15.50;4.05;;;7.80;99.90;;;;;;5036957;28;20173;-75
2022/12/22 15:56:19;;;;;;;11.95;3.72;;;7.80;99.90;;;;;;5053052;28;20040;-75
2022/12/22 15:58:45;;;;;;;11.38;4.05;;;7.80;99.90;;;;;;5049116;28;20044;-74
2022/12/22 16:01:11;;;;;;;10.95;3.92;;;7.80;99.90;;;;;;5050353;28;20410;-75
2022/12/22 16:03:37;;;;;;;11.75;4.10;;;7.80;99.90;;;;;;5028435;28;20040;-74
2022/12/22 16:06:07;;;;;;;14.55;4.38;;;7.80;99.90;;;;;;5056495;28;20135;-76
2022/12/22 16:08:37;;;;;;;11.10;3.85;;;7.70;99.90;;;;;;5053474;28;20057;-75
2022/12/22 16:11:06;;;;;;;13.70;4.20;;;7.80;99.90;;;;;;5055701;28;20410;-74
2022/12/22 16:13:36;;;;;;;12.65;4.32;;;7.70;99.90;;;;;;5047723;28;20044;-76
2022/12/22 16:16:02;;;;;;;15.60;4.40;;;7.70;99.90;;;;;;5030737;28;20040;-74
2022/12/22 16:18:31;;;;;;;14.98;4.32;;;7.70;99.90;;;;;;5050556;28;20091;-75
2022/12/22 16:21:21;;;;;;;12.63;4.10;;;7.70;99.90;;;;;;5055045;28;20134;-74
2022/12/22 16:23:49;;;;;;;13.45;4.03;;;7.60;99.90;;;;;;4718163;28;10001107;-74
2022/12/22 16:26:19;;;;;;;10.82;3.60;;;7.70;99.90;;;;;;5052583;28;20098;-74
2022/12/22 16:28:45;;;;;;;11.90;3.60;;;7.60;99.90;;;;;;5050573;28;20037;-75
2022/12/22 16:31:22;;;;;;;10.98;3.90;;;7.60;99.90;;;;;;5065865;28;20490;-75
2022/12/22 16:33:48;;;;;;;13.40;4.30;;;7.60;99.90;;;;;;5051043;28;20075;-75
2022/12/22 16:36:17;;;;;;;13.57;4.43;;;7.60;99.90;;;;;;5055015;28;20044;-75
2022/12/22 16:38:46;;;;;;;11.80;4.05;;;7.50;99.90;;;;;;5055411;28;20263;-75